sensor_id;sensor_type;location;lat;lon;timestamp;pressure;altitude;pressure_sealevel;temperature;humidity
35655;BME280;21773;50.010;19.972;2023-11-21T00:00:29;97897.84;;;13.61;100.00
35655;BME280;21773;50.010;19.972;2023-11-21T00:03:34;97891.09;;;13.64;100.00
35655;BME280;21773;50.010;19.972;2023-11-21T00:06:38;97900.06;;;13.74;100.00
35655;BME280;21773;50.010;19.972;2023-11-21T00:09:42;97887.59;;;13.73;100.00
35655;BME280;21773;50.010;19.972;2023-11-21T00:12:45;97900.06;;;13.74;100.00
35655;BME280;21773;50.010;19.972;2023-11-21T00:15:50;97896.81;;;13.67;100.00
35655;BME280;21773;50.010;19.972;2023-11-21T00:18:55;97910.91;;;13.74;100.00
35655;BME280;21773;50.010;19.972;2023-11-21T00:21:58;97890.00;;;13.65;100.00
35655;BME280;21773;50.010;19.972;2023-11-21T00:25:02;97911.97;;;13.63;100.00
35655;BME280;21773;50.010;19.972;2023-11-21T00:28:06;97911.66;;;13.60;100.00
35655;BME280;21773;50.010;19.972;2023-11-21T00:31:09;97907.28;;;13.49;100.00
35655;BME280;21773;50.010;19.972;2023-11-21T00:34:15;97913.00;;;13.52;100.00
35655;BME280;21773;50.010;19.972;2023-11-21T00:37:18;97913.00;;;13.57;100.00
35655;BME280;21773;50.010;19.972;2023-11-21T00:40:22;97910.34;;;13.67;100.00
35655;BME280;21773;50.010;19.972;2023-11-21T00:43:26;97907.31;;;13.64;100.00
35655;BME280;21773;50.010;19.972;2023-11-21T00:46:29;97918.72;;;13.66;100.00
35655;BME280;21773;50.010;19.972;2023-11-21T00:49:34;97923.34;;;13.70;100.00
35655;BME280;21773;50.010;19.972;2023-11-21T00:52:37;97920.88;;;13.64;100.00
35655;BME280;21773;50.010;19.972;2023-11-21T00:55:40;97915.22;;;13.70;100.00
35655;BME280;21773;50.010;19.972;2023-11-21T00:58:44;97909.81;;;13.75;100.00
35655;BME280;21773;50.010;19.972;2023-11-21T01:01:51;97908.22;;;13.79;100.00
35655;BME280;21773;50.010;19.972;2023-11-21T01:04:57;97907.69;;;13.82;100.00
35655;BME280;21773;50.010;19.972;2023-11-21T01:08:00;97915.03;;;13.87;100.00
35655;BME280;21773;50.010;19.972;2023-11-21T01:11:04;97920.97;;;13.94;100.00
35655;BME280;21773;50.010;19.972;2023-11-21T01:14:09;97918.00;;;13.91;100.00
35655;BME280;21773;50.010;19.972;2023-11-21T01:17:12;97922.81;;;13.73;100.00
35655;BME280;21773;50.010;19.972;2023-11-21T01:20:17;97913.91;;;13.78;100.00
35655;BME280;21773;50.010;19.972;2023-11-21T01:23:21;97916.28;;;13.69;100.00
35655;BME280;21773;50.010;19.972;2023-11-21T01:26:24;97916.56;;;13.63;100.00
35655;BME280;21773;50.010;19.972;2023-11-21T01:29:27;97905.97;;;13.61;100.00
35655;BME280;21773;50.010;19.972;2023-11-21T01:32:31;97917.59;;;13.57;100.00
35655;BME280;21773;50.010;19.972;2023-11-21T01:35:35;97918.69;;;13.56;100.00
35655;BME280;21773;50.010;19.972;2023-11-21T01:38:38;97908.41;;;13.58;100.00
35655;BME280;21773;50.010;19.972;2023-11-21T01:41:41;97911.94;;;13.58;100.00
35655;BME280;21773;50.010;19.972;2023-11-21T01:44:46;97917.59;;;13.57;100.00
35655;BME280;21773;50.010;19.972;2023-11-21T01:47:50;97917.63;;;13.62;100.00
35655;BME280;21773;50.010;19.972;2023-11-21T01:50:59;97915.44;;;13.64;100.00
35655;BME280;21773;50.010;19.972;2023-11-21T01:54:04;97912.69;;;13.54;100.00
35655;BME280;21773;50.010;19.972;2023-11-21T01:57:21;97915.16;;;13.55;100.00
35655;BME280;21773;50.010;19.972;2023-11-21T02:00:24;97907.28;;;13.54;100.00
35655;BME280;21773;50.010;19.972;2023-11-21T02:03:31;97910.84;;;13.64;100.00
35655;BME280;21773;50.010;19.972;2023-11-21T02:06:35;97900.81;;;13.60;100.00
35655;BME280;21773;50.010;19.972;2023-11-21T02:09:39;97907.56;;;13.52;100.00
35655;BME280;21773;50.010;19.972;2023-11-21T02:12:44;97904.84;;;13.47;100.00
35655;BME280;21773;50.010;19.972;2023-11-21T02:15:47;97912.69;;;13.43;100.00
35655;BME280;21773;50.010;19.972;2023-11-21T02:18:54;97906.97;;;13.45;100.00
35655;BME280;21773;50.010;19.972;2023-11-21T02:21:59;97906.97;;;13.45;100.00
35655;BME280;21773;50.010;19.972;2023-11-21T02:25:08;97900.19;;;13.37;100.00
35655;BME280;21773;50.010;19.972;2023-11-21T02:28:11;97915.63;;;13.37;100.00
35655;BME280;21773;50.010;19.972;2023-11-21T02:31:17;97908.78;;;13.29;100.00
35655;BME280;21773;50.010;19.972;2023-11-21T02:34:22;97922.38;;;13.39;100.00
35655;BME280;21773;50.010;19.972;2023-11-21T02:37:25;97921.84;;;13.37;100.00
35655;BME280;21773;50.010;19.972;2023-11-21T02:40:30;97912.31;;;13.30;100.00
35655;BME280;21773;50.010;19.972;2023-11-21T02:43:33;97915.81;;;13.25;100.00
35655;BME280;21773;50.010;19.972;2023-11-21T02:46:37;97923.97;;;13.30;100.00
35655;BME280;21773;50.010;19.972;2023-11-21T02:49:41;97915.84;;;13.30;100.00
35655;BME280;21773;50.010;19.972;2023-11-21T02:52:44;97919.63;;;13.29;100.00
35655;BME280;21773;50.010;19.972;2023-11-21T02:55:49;97924.53;;;13.32;100.00
35655;BME280;21773;50.010;19.972;2023-11-21T02:58:55;97918.59;;;13.40;100.00
35655;BME280;21773;50.010;19.972;2023-11-21T03:01:59;97924.84;;;13.41;100.00
35655;BME280;21773;50.010;19.972;2023-11-21T03:05:02;97932.72;;;13.42;100.00
35655;BME280;21773;50.010;19.972;2023-11-21T03:08:07;97937.31;;;13.42;100.00
35655;BME280;21773;50.010;19.972;2023-11-21T03:11:11;97932.16;;;13.45;100.00
35655;BME280;21773;50.010;19.972;2023-11-21T03:14:15;97933.72;;;13.31;100.00
35655;BME280;21773;50.010;19.972;2023-11-21T03:17:19;97930.44;;;13.29;100.00
35655;BME280;21773;50.010;19.972;2023-11-21T03:20:22;97943.22;;;13.34;100.00
35655;BME280;21773;50.010;19.972;2023-11-21T03:23:26;97935.09;;;13.39;100.00
35655;BME280;21773;50.010;19.972;2023-11-21T03:26:30;97921.53;;;13.29;100.00
35655;BME280;21773;50.010;19.972;2023-11-21T03:29:33;97934.28;;;13.33;100.00
35655;BME280;21773;50.010;19.972;2023-11-21T03:32:36;97931.00;;;13.31;100.00
35655;BME280;21773;50.010;19.972;2023-11-21T03:35:39;97937.22;;;13.27;100.00
35655;BME280;21773;50.010;19.972;2023-11-21T03:38:43;97931.78;;;13.22;100.00
35655;BME280;21773;50.010;19.972;2023-11-21T03:41:48;97942.09;;;13.30;100.00
35655;BME280;21773;50.010;19.972;2023-11-21T03:44:51;97943.91;;;13.14;100.00
35655;BME280;21773;50.010;19.972;2023-11-21T03:47:55;97945.59;;;13.25;100.00
35655;BME280;21773;50.010;19.972;2023-11-21T03:50:59;97945.59;;;13.25;100.00
35655;BME280;21773;50.010;19.972;2023-11-21T03:54:02;97951.28;;;13.24;100.00
35655;BME280;21773;50.010;19.972;2023-11-21T03:57:07;97950.75;;;13.27;100.00
35655;BME280;21773;50.010;19.972;2023-11-21T04:00:11;97950.75;;;13.27;100.00
35655;BME280;21773;50.010;19.972;2023-11-21T04:03:15;97949.13;;;13.31;100.00
35655;BME280;21773;50.010;19.972;2023-11-21T04:06:18;97952.41;;;13.33;100.00
35655;BME280;21773;50.010;19.972;2023-11-21T04:09:21;97951.88;;;13.36;100.00
35655;BME280;21773;50.010;19.972;2023-11-21T04:12:28;97945.38;;;13.32;100.00
35655;BME280;21773;50.010;19.972;2023-11-21T04:15:31;97943.72;;;13.31;100.00
35655;BME280;21773;50.010;19.972;2023-11-21T04:18:35;97953.22;;;13.33;100.00
35655;BME280;21773;50.010;19.972;2023-11-21T04:21:38;97952.94;;;13.35;100.00
35655;BME280;21773;50.010;19.972;2023-11-21T04:24:41;97946.47;;;13.36;100.00
35655;BME280;21773;50.010;19.972;2023-11-21T04:27:48;97950.50;;;13.28;100.00
35655;BME280;21773;50.010;19.972;2023-11-21T04:30:52;97953.50;;;13.37;100.00
35655;BME280;21773;50.010;19.972;2023-11-21T04:33:55;97943.19;;;13.29;100.00
35655;BME280;21773;50.010;19.972;2023-11-21T04:36:58;97952.88;;;13.25;100.00
35655;BME280;21773;50.010;19.972;2023-11-21T04:40:02;97957.09;;;13.11;100.00
35655;BME280;21773;50.010;19.972;2023-11-21T04:43:09;97959.38;;;13.19;100.00
35655;BME280;21773;50.010;19.972;2023-11-21T04:46:12;97969.38;;;13.18;100.00
35655;BME280;21773;50.010;19.972;2023-11-21T04:49:15;97967.25;;;13.25;100.00
35655;BME280;21773;50.010;19.972;2023-11-21T04:52:19;97967.25;;;13.25;100.00
35655;BME280;21773;50.010;19.972;2023-11-21T04:55:22;97977.81;;;13.27;100.00
35655;BME280;21773;50.010;19.972;2023-11-21T04:58:27;97976.19;;;13.26;100.00
35655;BME280;21773;50.010;19.972;2023-11-21T05:01:30;97971.06;;;13.29;100.00
35655;BME280;21773;50.010;19.972;2023-11-21T05:04:34;97974.84;;;13.28;100.00
35655;BME280;21773;50.010;19.972;2023-11-21T05:07:37;97970.28;;;13.34;100.00
35655;BME280;21773;50.010;19.972;2023-11-21T05:10:40;97975.41;;;13.30;100.00
35655;BME280;21773;50.010;19.972;2023-11-21T05:13:44;97981.88;;;13.29;100.00
35655;BME280;21773;50.010;19.972;2023-11-21T05:16:48;97982.13;;;13.23;100.00
35655;BME280;21773;50.010;19.972;2023-11-21T05:19:52;97982.63;;;13.20;100.00
35655;BME280;21773;50.010;19.972;2023-11-21T05:22:56;97990.16;;;13.13;100.00
35655;BME280;21773;50.010;19.972;2023-11-21T05:26:00;97990.50;;;13.21;100.00
35655;BME280;21773;50.010;19.972;2023-11-21T05:29:06;97994.88;;;13.27;100.00
35655;BME280;21773;50.010;19.972;2023-11-21T05:32:10;97995.91;;;13.21;100.00
35655;BME280;21773;50.010;19.972;2023-11-21T05:35:14;98004.59;;;13.23;100.00
35655;BME280;21773;50.010;19.972;2023-11-21T05:38:19;98012.97;;;13.22;100.00
35655;BME280;21773;50.010;19.972;2023-11-21T05:41:23;98004.25;;;13.15;100.00
35655;BME280;21773;50.010;19.972;2023-11-21T05:44:29;98014.63;;;13.28;100.00
35655;BME280;21773;50.010;19.972;2023-11-21T05:47:34;98016.78;;;13.26;100.00
35655;BME280;21773;50.010;19.972;2023-11-21T05:50:37;98021.97;;;13.32;100.00
35655;BME280;21773;50.010;19.972;2023-11-21T05:53:41;98027.91;;;13.29;100.00
35655;BME280;21773;50.010;19.972;2023-11-21T05:56:44;98029.53;;;13.30;100.00
35655;BME280;21773;50.010;19.972;2023-11-21T05:59:55;98029.78;;;13.24;100.00
35655;BME280;21773;50.010;19.972;2023-11-21T06:03:00;98028.91;;;13.18;100.00
35655;BME280;21773;50.010;19.972;2023-11-21T06:06:04;98034.06;;;13.20;100.00
35655;BME280;21773;50.010;19.972;2023-11-21T06:09:08;98028.69;;;13.25;100.00
35655;BME280;21773;50.010;19.972;2023-11-21T06:12:13;98030.31;;;13.26;100.00
35655;BME280;21773;50.010;19.972;2023-11-21T06:15:20;98046.56;;;13.26;100.00
35655;BME280;21773;50.010;19.972;2023-11-21T06:18:25;98032.44;;;13.19;100.00
35655;BME280;21773;50.010;19.972;2023-11-21T06:21:28;98034.91;;;13.25;100.00
35655;BME280;21773;50.010;19.972;2023-11-21T06:24:32;98044.47;;;13.33;100.00
35655;BME280;21773;50.010;19.972;2023-11-21T06:27:38;98039.63;;;13.40;100.00
35655;BME280;21773;50.010;19.972;2023-11-21T06:30:43;98048.34;;;13.47;100.00
35655;BME280;21773;50.010;19.972;2023-11-21T06:33:47;98045.88;;;13.45;100.00
35655;BME280;21773;50.010;19.972;2023-11-21T06:36:55;98050.00;;;13.53;100.00
35655;BME280;21773;50.010;19.972;2023-11-21T06:40:00;98062.44;;;13.54;100.00
35655;BME280;21773;50.010;19.972;2023-11-21T06:43:05;98065.63;;;13.41;100.00
35655;BME280;21773;50.010;19.972;2023-11-21T06:46:12;98065.59;;;13.36;100.00
35655;BME280;21773;50.010;19.972;2023-11-21T06:49:16;98066.41;;;13.36;100.00
35655;BME280;21773;50.010;19.972;2023-11-21T06:52:20;98068.31;;;13.41;100.00
35655;BME280;21773;50.010;19.972;2023-11-21T06:55:23;98072.41;;;13.43;100.00
35655;BME280;21773;50.010;19.972;2023-11-21T06:58:26;98069.16;;;13.41;100.00
35655;BME280;21773;50.010;19.972;2023-11-21T07:01:30;98083.25;;;13.43;100.00
35655;BME280;21773;50.010;19.972;2023-11-21T07:04:36;98075.16;;;13.49;100.00
35655;BME280;21773;50.010;19.972;2023-11-21T07:07:39;98078.97;;;13.53;100.00
35655;BME280;21773;50.010;19.972;2023-11-21T07:10:43;98078.69;;;13.54;100.00
35655;BME280;21773;50.010;19.972;2023-11-21T07:13:46;98081.63;;;13.42;100.00
35655;BME280;21773;50.010;19.972;2023-11-21T07:16:50;98082.53;;;13.58;100.00
35655;BME280;21773;50.010;19.972;2023-11-21T07:19:54;98084.19;;;13.64;100.00
35655;BME280;21773;50.010;19.972;2023-11-21T07:22:58;98088.78;;;13.64;100.00
35655;BME280;21773;50.010;19.972;2023-11-21T07:26:01;98090.72;;;13.68;100.00
35655;BME280;21773;50.010;19.972;2023-11-21T07:29:05;98083.34;;;13.59;100.00
35655;BME280;21773;50.010;19.972;2023-11-21T07:32:09;98091.59;;;13.79;100.00
35655;BME280;21773;50.010;19.972;2023-11-21T07:35:12;98094.31;;;13.79;100.00
35655;BME280;21773;50.010;19.972;2023-11-21T07:38:15;98102.16;;;13.75;100.00
35655;BME280;21773;50.010;19.972;2023-11-21T07:41:19;98103.78;;;13.76;100.00
35655;BME280;21773;50.010;19.972;2023-11-21T07:44:32;98096.16;;;13.73;100.00
35655;BME280;21773;50.010;19.972;2023-11-21T07:47:36;98098.84;;;13.68;100.00
35655;BME280;21773;50.010;19.972;2023-11-21T07:50:41;98105.34;;;13.67;100.00
35655;BME280;21773;50.010;19.972;2023-11-21T07:53:44;98107.47;;;13.60;100.00
35655;BME280;21773;50.010;19.972;2023-11-21T07:56:47;98098.25;;;13.61;100.00
35655;BME280;21773;50.010;19.972;2023-11-21T07:59:50;98103.09;;;13.59;100.00
35655;BME280;21773;50.010;19.972;2023-11-21T08:02:56;98104.75;;;13.60;100.00
35655;BME280;21773;50.010;19.972;2023-11-21T08:06:00;98104.47;;;13.57;100.00
35655;BME280;21773;50.010;19.972;2023-11-21T08:09:05;98108.25;;;13.56;100.00
35655;BME280;21773;50.010;19.972;2023-11-21T08:12:10;98104.22;;;13.58;100.00
35655;BME280;21773;50.010;19.972;2023-11-21T08:15:13;98112.66;;;13.67;100.00
35655;BME280;21773;50.010;19.972;2023-11-21T08:18:17;98115.34;;;13.62;100.00
35655;BME280;21773;50.010;19.972;2023-11-21T08:21:20;98115.88;;;13.64;100.00
35655;BME280;21773;50.010;19.972;2023-11-21T08:24:25;98115.66;;;13.70;100.00
35655;BME280;21773;50.010;19.972;2023-11-21T08:27:29;98112.09;;;13.65;100.00
35655;BME280;21773;50.010;19.972;2023-11-21T08:30:32;98117.84;;;13.73;100.00
35655;BME280;21773;50.010;19.972;2023-11-21T08:33:38;98124.63;;;13.76;100.00
35655;BME280;21773;50.010;19.972;2023-11-21T08:36:42;98129.53;;;13.79;100.00
35655;BME280;21773;50.010;19.972;2023-11-21T08:39:45;98120.28;;;13.75;100.00
35655;BME280;21773;50.010;19.972;2023-11-21T08:42:50;98128.16;;;13.76;100.00
35655;BME280;21773;50.010;19.972;2023-11-21T08:45:54;98128.41;;;13.75;100.00
35655;BME280;21773;50.010;19.972;2023-11-21T08:48:58;98127.38;;;13.81;100.00
35655;BME280;21773;50.010;19.972;2023-11-21T08:52:02;98133.91;;;13.85;100.00
35655;BME280;21773;50.010;19.972;2023-11-21T08:55:07;98134.47;;;13.87;100.00
35655;BME280;21773;50.010;19.972;2023-11-21T08:58:10;98142.06;;;13.90;100.00
35655;BME280;21773;50.010;19.972;2023-11-21T09:01:14;98142.06;;;13.90;100.00
35655;BME280;21773;50.010;19.972;2023-11-21T09:04:18;98136.91;;;13.88;100.00
35655;BME280;21773;50.010;19.972;2023-11-21T09:07:21;98136.13;;;13.93;100.00
35655;BME280;21773;50.010;19.972;2023-11-21T09:10:25;98135.63;;;13.96;100.00
35655;BME280;21773;50.010;19.972;2023-11-21T09:13:28;98131.50;;;13.94;100.00
35655;BME280;21773;50.010;19.972;2023-11-21T09:16:31;98140.25;;;14.01;100.00
35655;BME280;21773;50.010;19.972;2023-11-21T09:19:36;98134.56;;;14.02;100.00
35655;BME280;21773;50.010;19.972;2023-11-21T09:22:39;98138.13;;;14.13;100.00
35655;BME280;21773;50.010;19.972;2023-11-21T09:25:43;98120.75;;;14.04;100.00
35655;BME280;21773;50.010;19.972;2023-11-21T09:28:48;98137.88;;;14.14;100.00
35655;BME280;21773;50.010;19.972;2023-11-21T09:31:51;98132.66;;;14.03;100.00
35655;BME280;21773;50.010;19.972;2023-11-21T09:34:58;98131.59;;;14.04;100.00
35655;BME280;21773;50.010;19.972;2023-11-21T09:38:04;98131.84;;;13.97;100.00
35655;BME280;21773;50.010;19.972;2023-11-21T09:41:20;98133.75;;;14.02;100.00
35655;BME280;21773;50.010;19.972;2023-11-21T09:44:31;98132.63;;;13.93;100.00
35655;BME280;21773;50.010;19.972;2023-11-21T09:47:38;98135.78;;;13.84;100.00
35655;BME280;21773;50.010;19.972;2023-11-21T09:50:43;98145.56;;;13.85;100.00
35655;BME280;21773;50.010;19.972;2023-11-21T09:53:49;98137.78;;;13.99;100.00
35655;BME280;21773;50.010;19.972;2023-11-21T09:56:54;98140.31;;;14.11;100.00
35655;BME280;21773;50.010;19.972;2023-11-21T09:59:57;98145.22;;;14.19;100.00
35655;BME280;21773;50.010;19.972;2023-11-21T10:03:06;98137.09;;;14.19;100.00
35655;BME280;21773;50.010;19.972;2023-11-21T10:06:12;98144.19;;;14.25;100.00
35655;BME280;21773;50.010;19.972;2023-11-21T10:09:16;98143.34;;;14.24;100.00
35655;BME280;21773;50.010;19.972;2023-11-21T10:12:23;98143.63;;;14.28;100.00
35655;BME280;21773;50.010;19.972;2023-11-21T10:15:27;98150.22;;;14.37;100.00
35655;BME280;21773;50.010;19.972;2023-11-21T10:18:32;98134.16;;;14.25;100.00
35655;BME280;21773;50.010;19.972;2023-11-21T10:21:37;98139.31;;;14.32;100.00
35655;BME280;21773;50.010;19.972;2023-11-21T10:24:41;98153.78;;;14.43;100.00
35655;BME280;21773;50.010;19.972;2023-11-21T10:27:57;98146.78;;;14.57;100.00
35655;BME280;21773;50.010;19.972;2023-11-21T10:31:02;98146.59;;;14.79;100.00
35655;BME280;21773;50.010;19.972;2023-11-21T10:34:13;98151.81;;;15.00;100.00
35655;BME280;21773;50.010;19.972;2023-11-21T10:37:18;98148.81;;;14.97;100.00
35655;BME280;21773;50.010;19.972;2023-11-21T10:40:21;98149.91;;;14.96;100.00
35655;BME280;21773;50.010;19.972;2023-11-21T10:43:25;98152.91;;;14.94;100.00
35655;BME280;21773;50.010;19.972;2023-11-21T10:46:30;98150.41;;;14.83;100.00
35655;BME280;21773;50.010;19.972;2023-11-21T10:49:33;98154.97;;;14.67;100.00
35655;BME280;21773;50.010;19.972;2023-11-21T10:52:39;98149.78;;;14.55;100.00
35655;BME280;21773;50.010;19.972;2023-11-21T10:55:45;98147.09;;;14.60;100.00
35655;BME280;21773;50.010;19.972;2023-11-21T10:58:49;98153.59;;;14.59;100.00
35655;BME280;21773;50.010;19.972;2023-11-21T11:01:53;98152.78;;;14.64;100.00
35655;BME280;21773;50.010;19.972;2023-11-21T11:04:58;98156.34;;;14.69;100.00
35655;BME280;21773;50.010;19.972;2023-11-21T11:08:05;98144.91;;;14.62;100.00
35655;BME280;21773;50.010;19.972;2023-11-21T11:11:10;98143.56;;;14.60;100.00
35655;BME280;21773;50.010;19.972;2023-11-21T11:14:13;98146.81;;;14.62;100.00
35655;BME280;21773;50.010;19.972;2023-11-21T11:17:19;98150.88;;;14.59;100.00
35655;BME280;21773;50.010;19.972;2023-11-21T11:20:24;98150.91;;;14.64;100.00
35655;BME280;21773;50.010;19.972;2023-11-21T11:23:43;98141.34;;;14.57;100.00
35655;BME280;21773;50.010;19.972;2023-11-21T11:26:57;98151.13;;;14.53;100.00
35655;BME280;21773;50.010;19.972;2023-11-21T11:30:11;98142.94;;;14.48;100.00
35655;BME280;21773;50.010;19.972;2023-11-21T11:33:25;98148.97;;;14.55;100.00
35655;BME280;21773;50.010;19.972;2023-11-21T11:36:44;98149.75;;;14.45;100.00
35655;BME280;21773;50.010;19.972;2023-11-21T11:39:51;98151.13;;;14.53;100.00
35655;BME280;21773;50.010;19.972;2023-11-21T11:42:57;98152.25;;;14.67;100.00
35655;BME280;21773;50.010;19.972;2023-11-21T11:46:03;98153.34;;;14.71;100.00
35655;BME280;21773;50.010;19.972;2023-11-21T11:49:06;98161.78;;;14.69;100.00
35655;BME280;21773;50.010;19.972;2023-11-21T11:52:31;98164.22;;;14.76;100.00
35655;BME280;21773;50.010;19.972;2023-11-21T11:55:37;98164.22;;;14.76;100.00
35655;BME280;21773;50.010;19.972;2023-11-21T11:58:41;98169.44;;;14.88;100.00
35655;BME280;21773;50.010;19.972;2023-11-21T12:01:46;98169.13;;;14.79;100.00
35655;BME280;21773;50.010;19.972;2023-11-21T12:04:49;98171.31;;;14.82;100.00
35655;BME280;21773;50.010;19.972;2023-11-21T12:08:00;98168.09;;;14.90;100.00
35655;BME280;21773;50.010;19.972;2023-11-21T12:11:06;98160.75;;;14.91;100.00
35655;BME280;21773;50.010;19.972;2023-11-21T12:14:13;98164.00;;;14.88;100.00
35655;BME280;21773;50.010;19.972;2023-11-21T12:17:19;98169.44;;;14.88;100.00
35655;BME280;21773;50.010;19.972;2023-11-21T12:20:24;98150.69;;;14.86;100.00
35655;BME280;21773;50.010;19.972;2023-11-21T12:23:27;98165.13;;;15.02;100.00
35655;BME280;21773;50.010;19.972;2023-11-21T12:26:32;98159.44;;;15.08;100.00
35655;BME280;21773;50.010;19.972;2023-11-21T12:29:36;98159.50;;;15.39;100.00
35655;BME280;21773;50.010;19.972;2023-11-21T12:32:40;98161.44;;;15.58;100.00
35655;BME280;21773;50.010;19.972;2023-11-21T12:35:44;98167.16;;;15.62;100.00
35655;BME280;21773;50.010;19.972;2023-11-21T12:38:47;98164.16;;;15.58;100.00
35655;BME280;21773;50.010;19.972;2023-11-21T12:41:52;98171.19;;;15.59;100.00
35655;BME280;21773;50.010;19.972;2023-11-21T12:45:10;98163.84;;;15.50;100.00
35655;BME280;21773;50.010;19.972;2023-11-21T12:48:17;98158.38;;;15.35;100.00
35655;BME280;21773;50.010;19.972;2023-11-21T12:51:26;98169.53;;;15.28;100.00
35655;BME280;21773;50.010;19.972;2023-11-21T12:54:31;98166.78;;;15.13;100.00
35655;BME280;21773;50.010;19.972;2023-11-21T12:57:35;98165.69;;;15.14;100.00
35655;BME280;21773;50.010;19.972;2023-11-21T13:00:42;98167.34;;;15.10;100.00
35655;BME280;21773;50.010;19.972;2023-11-21T13:03:50;98155.06;;;14.92;100.00
35655;BME280;21773;50.010;19.972;2023-11-21T13:06:53;98162.66;;;14.90;100.00
35655;BME280;21773;50.010;19.972;2023-11-21T13:09:57;98178.94;;;14.90;100.00
35655;BME280;21773;50.010;19.972;2023-11-21T13:13:05;98168.91;;;14.96;100.00
35655;BME280;21773;50.010;19.972;2023-11-21T13:16:10;98000.38;;;13.95;100.00
35655;BME280;21773;50.010;19.972;2023-11-21T13:19:15;98177.34;;;14.99;100.00
35655;BME280;21773;50.010;19.972;2023-11-21T13:22:18;98156.94;;;14.87;100.00
35655;BME280;21773;50.010;19.972;2023-11-21T13:25:23;98172.44;;;15.01;100.00
35655;BME280;21773;50.010;19.972;2023-11-21T13:28:30;98181.41;;;15.02;100.00
35655;BME280;21773;50.010;19.972;2023-11-21T13:31:35;98192.53;;;15.00;100.00
35655;BME280;21773;50.010;19.972;2023-11-21T13:34:40;98188.50;;;15.13;100.00
35655;BME280;21773;50.010;19.972;2023-11-21T13:37:48;98188.25;;;15.40;100.00
35655;BME280;21773;50.010;19.972;2023-11-21T13:40:53;98186.97;;;15.52;100.00
35655;BME280;21773;50.010;19.972;2023-11-21T13:43:59;98187.78;;;15.58;100.00
35655;BME280;21773;50.010;19.972;2023-11-21T13:47:19;98194.53;;;15.50;100.00
35655;BME280;21773;50.010;19.972;2023-11-21T13:50:27;98201.06;;;15.39;100.00
35655;BME280;21773;50.010;19.972;2023-11-21T13:53:34;98196.94;;;15.22;100.00
35655;BME280;21773;50.010;19.972;2023-11-21T13:56:41;98198.50;;;14.97;100.00
35655;BME280;21773;50.010;19.972;2023-11-21T13:59:48;98141.63;;;14.50;100.00
35655;BME280;21773;50.010;19.972;2023-11-21T14:02:51;98195.66;;;14.67;100.00
35655;BME280;21773;50.010;19.972;2023-11-21T14:05:54;98198.88;;;14.59;100.00
35655;BME280;21773;50.010;19.972;2023-11-21T14:08:58;98204.56;;;14.57;100.00
35655;BME280;21773;50.010;19.972;2023-11-21T14:12:07;98197.81;;;14.60;100.00
35655;BME280;21773;50.010;19.972;2023-11-21T14:15:15;98197.25;;;14.58;100.00
35655;BME280;21773;50.010;19.972;2023-11-21T14:18:21;98202.41;;;14.54;100.00
35655;BME280;21773;50.010;19.972;2023-11-21T14:21:32;98203.38;;;14.38;100.00
35655;BME280;21773;50.010;19.972;2023-11-21T14:24:35;98203.31;;;14.33;100.00
35655;BME280;21773;50.010;19.972;2023-11-21T14:27:38;98211.13;;;14.24;100.00
35655;BME280;21773;50.010;19.972;2023-11-21T14:30:43;98211.66;;;14.21;100.00
35655;BME280;21773;50.010;19.972;2023-11-21T14:33:46;98220.31;;;14.18;100.00
35655;BME280;21773;50.010;19.972;2023-11-21T14:36:49;98219.69;;;14.06;100.00
35655;BME280;21773;50.010;19.972;2023-11-21T14:39:52;98199.22;;;13.88;100.00
35655;BME280;21773;50.010;19.972;2023-11-21T14:42:56;98226.16;;;14.00;100.00
35655;BME280;21773;50.010;19.972;2023-11-21T14:46:00;98216.06;;;13.91;100.00
35655;BME280;21773;50.010;19.972;2023-11-21T14:49:05;98226.31;;;13.88;100.00
35655;BME280;21773;50.010;19.972;2023-11-21T14:52:21;98216.22;;;13.79;100.00
35655;BME280;21773;50.010;19.972;2023-11-21T14:55:37;98219.75;;;13.79;100.00
35655;BME280;21773;50.010;19.972;2023-11-21T14:58:55;98233.66;;;13.93;100.00
35655;BME280;21773;50.010;19.972;2023-11-21T15:02:04;98242.94;;;13.97;100.00
35655;BME280;21773;50.010;19.972;2023-11-21T15:05:16;98229.88;;;13.94;100.00
35655;BME280;21773;50.010;19.972;2023-11-21T15:08:21;98243.72;;;13.98;100.00
35655;BME280;21773;50.010;19.972;2023-11-21T15:11:30;98252.69;;;13.98;100.00
35655;BME280;21773;50.010;19.972;2023-11-21T15:14:33;98252.19;;;14.01;100.00
35655;BME280;21773;50.010;19.972;2023-11-21T15:17:39;98253.53;;;14.04;100.00
35655;BME280;21773;50.010;19.972;2023-11-21T15:20:45;98258.13;;;14.03;100.00
35655;BME280;21773;50.010;19.972;2023-11-21T15:23:48;98253.81;;;14.02;100.00
35655;BME280;21773;50.010;19.972;2023-11-21T15:26:51;98261.16;;;14.07;100.00
35655;BME280;21773;50.010;19.972;2023-11-21T15:29:54;98264.69;;;14.07;100.00
35655;BME280;21773;50.010;19.972;2023-11-21T15:32:59;98263.06;;;14.06;100.00
35655;BME280;21773;50.010;19.972;2023-11-21T15:36:02;98273.09;;;14.06;100.00
35655;BME280;21773;50.010;19.972;2023-11-21T15:39:05;98273.09;;;14.06;100.00
35655;BME280;21773;50.010;19.972;2023-11-21T15:42:09;98275.22;;;14.04;100.00
35655;BME280;21773;50.010;19.972;2023-11-21T15:45:12;98279.53;;;14.00;100.00
35655;BME280;21773;50.010;19.972;2023-11-21T15:48:17;98271.34;;;13.95;100.00
35655;BME280;21773;50.010;19.972;2023-11-21T15:51:20;98277.56;;;13.90;100.00
35655;BME280;21773;50.010;19.972;2023-11-21T15:54:25;98288.59;;;13.83;100.00